sensor_id;sensor_type;location;lat;lon;timestamp;P1;durP1;ratioP1;P2;durP2;ratioP2
22539;SDS011;11436;50.860;4.334;2022-11-15T00:01:17;24.38;;;17.23;;
22539;SDS011;11436;50.860;4.334;2022-11-15T00:03:43;26.60;;;17.95;;
22539;SDS011;11436;50.860;4.334;2022-11-15T00:06:09;23.70;;;16.17;;
22539;SDS011;11436;50.860;4.334;2022-11-15T00:08:35;23.80;;;17.10;;
22539;SDS011;11436;50.860;4.334;2022-11-15T00:11:01;23.52;;;17.55;;
22539;SDS011;11436;50.860;4.334;2022-11-15T00:13:28;24.60;;;17.00;;
22539;SDS011;11436;50.860;4.334;2022-11-15T00:15:58;23.92;;;16.63;;
22539;SDS011;11436;50.860;4.334;2022-11-15T00:18:26;25.88;;;17.67;;
22539;SDS011;11436;50.860;4.334;2022-11-15T00:20:52;27.55;;;17.77;;
22539;SDS011;11436;50.860;4.334;2022-11-15T00:23:18;29.08;;;17.92;;
22539;SDS011;11436;50.860;4.334;2022-11-15T00:25:43;30.38;;;18.80;;
22539;SDS011;11436;50.860;4.334;2022-11-15T00:28:09;28.25;;;18.60;;
22539;SDS011;11436;50.860;4.334;2022-11-15T00:30:35;27.33;;;18.13;;
22539;SDS011;11436;50.860;4.334;2022-11-15T00:33:04;27.17;;;18.77;;
22539;SDS011;11436;50.860;4.334;2022-11-15T00:35:31;28.90;;;18.52;;
22539;SDS011;11436;50.860;4.334;2022-11-15T00:37:59;27.40;;;17.98;;
22539;SDS011;11436;50.860;4.334;2022-11-15T00:40:25;24.60;;;18.20;;
22539;SDS011;11436;50.860;4.334;2022-11-15T00:42:51;28.02;;;18.20;;
22539;SDS011;11436;50.860;4.334;2022-11-15T00:45:17;23.77;;;17.58;;
22539;SDS011;11436;50.860;4.334;2022-11-15T00:47:46;24.13;;;18.05;;
22539;SDS011;11436;50.860;4.334;2022-11-15T00:50:12;31.42;;;19.75;;
22539;SDS011;11436;50.860;4.334;2022-11-15T00:52:38;26.10;;;18.95;;
22539;SDS011;11436;50.860;4.334;2022-11-15T00:55:04;24.73;;;17.85;;
22539;SDS011;11436;50.860;4.334;2022-11-15T00:57:30;24.52;;;18.40;;
22539;SDS011;11436;50.860;4.334;2022-11-15T00:59:56;29.65;;;19.33;;
22539;SDS011;11436;50.860;4.334;2022-11-15T01:02:21;26.50;;;18.58;;
22539;SDS011;11436;50.860;4.334;2022-11-15T01:04:47;32.25;;;18.98;;
22539;SDS011;11436;50.860;4.334;2022-11-15T01:07:13;30.20;;;18.65;;
22539;SDS011;11436;50.860;4.334;2022-11-15T01:09:38;27.52;;;19.92;;
22539;SDS011;11436;50.860;4.334;2022-11-15T01:12:04;33.20;;;19.98;;
22539;SDS011;11436;50.860;4.334;2022-11-15T01:14:30;28.77;;;20.67;;
22539;SDS011;11436;50.860;4.334;2022-11-15T01:16:55;27.15;;;20.15;;
22539;SDS011;11436;50.860;4.334;2022-11-15T01:19:21;29.92;;;20.48;;
22539;SDS011;11436;50.860;4.334;2022-11-15T01:21:50;35.90;;;21.15;;
22539;SDS011;11436;50.860;4.334;2022-11-15T01:24:16;33.72;;;20.45;;
22539;SDS011;11436;50.860;4.334;2022-11-15T01:26:42;27.95;;;20.35;;
22539;SDS011;11436;50.860;4.334;2022-11-15T01:29:07;29.90;;;19.80;;
22539;SDS011;11436;50.860;4.334;2022-11-15T01:31:33;30.30;;;20.73;;
22539;SDS011;11436;50.860;4.334;2022-11-15T01:34:00;26.35;;;19.95;;
22539;SDS011;11436;50.860;4.334;2022-11-15T01:36:25;29.75;;;20.00;;
22539;SDS011;11436;50.860;4.334;2022-11-15T01:38:54;33.10;;;20.23;;
22539;SDS011;11436;50.860;4.334;2022-11-15T01:41:23;25.92;;;19.23;;
22539;SDS011;11436;50.860;4.334;2022-11-15T01:43:52;27.15;;;20.38;;
22539;SDS011;11436;50.860;4.334;2022-11-15T01:46:35;26.90;;;19.90;;
22539;SDS011;11436;50.860;4.334;2022-11-15T01:49:11;27.60;;;18.58;;
22539;SDS011;11436;50.860;4.334;2022-11-15T01:51:41;26.85;;;19.13;;
22539;SDS011;11436;50.860;4.334;2022-11-15T01:54:10;28.40;;;18.80;;
22539;SDS011;11436;50.860;4.334;2022-11-15T01:56:45;34.58;;;20.73;;
22539;SDS011;11436;50.860;4.334;2022-11-15T01:59:15;26.23;;;18.63;;
22539;SDS011;11436;50.860;4.334;2022-11-15T02:01:41;29.00;;;18.45;;
22539;SDS011;11436;50.860;4.334;2022-11-15T02:04:10;26.73;;;18.52;;
22539;SDS011;11436;50.860;4.334;2022-11-15T02:06:40;27.13;;;19.50;;
22539;SDS011;11436;50.860;4.334;2022-11-15T02:09:07;24.00;;;18.30;;
22539;SDS011;11436;50.860;4.334;2022-11-15T02:11:33;25.52;;;18.10;;
22539;SDS011;11436;50.860;4.334;2022-11-15T02:13:59;24.50;;;17.98;;
22539;SDS011;11436;50.860;4.334;2022-11-15T02:16:31;28.95;;;17.98;;
22539;SDS011;11436;50.860;4.334;2022-11-15T02:36:30;24.45;;;17.90;;
22539;SDS011;11436;50.860;4.334;2022-11-15T02:41:13;30.50;;;18.75;;
22539;SDS011;11436;50.860;4.334;2022-11-15T02:43:44;27.08;;;17.52;;
22539;SDS011;11436;50.860;4.334;2022-11-15T02:46:36;28.90;;;17.25;;
22539;SDS011;11436;50.860;4.334;2022-11-15T02:49:28;27.60;;;16.40;;
22539;SDS011;11436;50.860;4.334;2022-11-15T02:51:57;21.60;;;16.73;;
22539;SDS011;11436;50.860;4.334;2022-11-15T02:54:29;22.83;;;16.40;;
22539;SDS011;11436;50.860;4.334;2022-11-15T02:57:01;22.23;;;15.77;;
22539;SDS011;11436;50.860;4.334;2022-11-15T03:05:18;24.45;;;14.75;;
22539;SDS011;11436;50.860;4.334;2022-11-15T03:15:41;20.08;;;13.75;;
22539;SDS011;11436;50.860;4.334;2022-11-15T03:18:19;21.25;;;12.50;;
22539;SDS011;11436;50.860;4.334;2022-11-15T03:20:48;20.13;;;12.65;;
22539;SDS011;11436;50.860;4.334;2022-11-15T03:23:15;20.73;;;10.68;;
22539;SDS011;11436;50.860;4.334;2022-11-15T03:25:43;18.60;;;10.88;;
22539;SDS011;11436;50.860;4.334;2022-11-15T03:28:14;19.08;;;10.80;;
22539;SDS011;11436;50.860;4.334;2022-11-15T03:30:44;20.15;;;10.63;;
22539;SDS011;11436;50.860;4.334;2022-11-15T03:33:12;15.13;;;10.05;;
22539;SDS011;11436;50.860;4.334;2022-11-15T03:35:40;11.57;;;8.82;;
22539;SDS011;11436;50.860;4.334;2022-11-15T03:46:06;14.00;;;8.07;;
22539;SDS011;11436;50.860;4.334;2022-11-15T03:48:40;14.30;;;8.40;;
22539;SDS011;11436;50.860;4.334;2022-11-15T03:51:15;21.60;;;8.95;;
22539;SDS011;11436;50.860;4.334;2022-11-15T03:53:41;12.95;;;8.65;;
22539;SDS011;11436;50.860;4.334;2022-11-15T03:56:07;11.77;;;8.57;;
22539;SDS011;11436;50.860;4.334;2022-11-15T03:58:33;14.18;;;7.88;;
22539;SDS011;11436;50.860;4.334;2022-11-15T04:00:59;14.00;;;8.63;;
22539;SDS011;11436;50.860;4.334;2022-11-15T04:03:25;17.02;;;7.63;;
22539;SDS011;11436;50.860;4.334;2022-11-15T04:05:50;12.15;;;7.13;;
22539;SDS011;11436;50.860;4.334;2022-11-15T04:08:16;13.15;;;7.65;;
22539;SDS011;11436;50.860;4.334;2022-11-15T04:10:42;16.33;;;8.32;;
22539;SDS011;11436;50.860;4.334;2022-11-15T04:13:08;12.85;;;7.28;;
22539;SDS011;11436;50.860;4.334;2022-11-15T04:15:34;13.35;;;7.97;;
22539;SDS011;11436;50.860;4.334;2022-11-15T04:18:00;14.38;;;8.15;;
22539;SDS011;11436;50.860;4.334;2022-11-15T04:20:27;11.65;;;7.15;;
22539;SDS011;11436;50.860;4.334;2022-11-15T04:23:14;14.07;;;6.95;;
22539;SDS011;11436;50.860;4.334;2022-11-15T04:26:24;12.40;;;6.95;;
22539;SDS011;11436;50.860;4.334;2022-11-15T04:28:49;14.82;;;6.82;;
22539;SDS011;11436;50.860;4.334;2022-11-15T04:31:34;13.98;;;6.90;;
22539;SDS011;11436;50.860;4.334;2022-11-15T04:33:59;19.70;;;12.02;;
22539;SDS011;11436;50.860;4.334;2022-11-15T04:36:25;13.95;;;6.43;;
22539;SDS011;11436;50.860;4.334;2022-11-15T04:39:09;14.55;;;6.70;;
22539;SDS011;11436;50.860;4.334;2022-11-15T04:41:35;10.30;;;5.90;;
22539;SDS011;11436;50.860;4.334;2022-11-15T04:44:01;11.95;;;6.18;;
22539;SDS011;11436;50.860;4.334;2022-11-15T04:46:27;13.18;;;6.03;;
22539;SDS011;11436;50.860;4.334;2022-11-15T04:48:53;9.82;;;5.68;;
22539;SDS011;11436;50.860;4.334;2022-11-15T04:51:19;10.82;;;6.00;;
22539;SDS011;11436;50.860;4.334;2022-11-15T04:53:45;10.88;;;5.55;;
22539;SDS011;11436;50.860;4.334;2022-11-15T04:56:11;10.30;;;5.13;;
22539;SDS011;11436;50.860;4.334;2022-11-15T04:58:37;9.98;;;5.30;;
22539;SDS011;11436;50.860;4.334;2022-11-15T05:01:13;12.80;;;5.82;;
22539;SDS011;11436;50.860;4.334;2022-11-15T05:03:43;8.65;;;5.60;;
22539;SDS011;11436;50.860;4.334;2022-11-15T05:06:28;8.38;;;5.15;;
22539;SDS011;11436;50.860;4.334;2022-11-15T05:08:54;10.98;;;5.75;;
22539;SDS011;11436;50.860;4.334;2022-11-15T05:11:20;14.23;;;5.55;;
22539;SDS011;11436;50.860;4.334;2022-11-15T05:13:46;11.95;;;5.85;;
22539;SDS011;11436;50.860;4.334;2022-11-15T05:16:12;10.65;;;5.78;;
22539;SDS011;11436;50.860;4.334;2022-11-15T05:18:38;10.88;;;5.72;;
22539;SDS011;11436;50.860;4.334;2022-11-15T05:21:09;11.13;;;5.70;;
22539;SDS011;11436;50.860;4.334;2022-11-15T05:23:37;8.23;;;5.30;;
22539;SDS011;11436;50.860;4.334;2022-11-15T05:26:03;11.10;;;5.70;;
22539;SDS011;11436;50.860;4.334;2022-11-15T05:28:30;10.52;;;5.30;;
22539;SDS011;11436;50.860;4.334;2022-11-15T05:31:03;21.83;;;5.40;;
22539;SDS011;11436;50.860;4.334;2022-11-15T05:33:31;14.85;;;5.47;;
22539;SDS011;11436;50.860;4.334;2022-11-15T05:36:02;11.10;;;5.25;;
22539;SDS011;11436;50.860;4.334;2022-11-15T05:38:31;11.43;;;4.97;;
22539;SDS011;11436;50.860;4.334;2022-11-15T05:40:58;15.27;;;5.40;;
22539;SDS011;11436;50.860;4.334;2022-11-15T05:43:25;12.90;;;4.97;;
22539;SDS011;11436;50.860;4.334;2022-11-15T05:45:51;14.90;;;5.32;;
22539;SDS011;11436;50.860;4.334;2022-11-15T05:48:17;10.52;;;4.88;;
22539;SDS011;11436;50.860;4.334;2022-11-15T05:50:44;12.63;;;4.78;;
22539;SDS011;11436;50.860;4.334;2022-11-15T05:53:13;8.95;;;4.80;;
22539;SDS011;11436;50.860;4.334;2022-11-15T05:55:41;7.72;;;4.45;;
22539;SDS011;11436;50.860;4.334;2022-11-15T05:58:07;7.00;;;3.95;;
22539;SDS011;11436;50.860;4.334;2022-11-15T06:00:33;9.90;;;4.35;;
22539;SDS011;11436;50.860;4.334;2022-11-15T06:02:59;11.35;;;4.75;;
22539;SDS011;11436;50.860;4.334;2022-11-15T06:05:25;12.50;;;4.35;;
22539;SDS011;11436;50.860;4.334;2022-11-15T06:07:50;9.20;;;4.15;;
22539;SDS011;11436;50.860;4.334;2022-11-15T06:10:16;15.75;;;4.53;;
22539;SDS011;11436;50.860;4.334;2022-11-15T06:12:42;13.35;;;4.45;;
22539;SDS011;11436;50.860;4.334;2022-11-15T06:15:08;9.30;;;4.45;;
22539;SDS011;11436;50.860;4.334;2022-11-15T06:17:34;28.42;;;12.93;;
22539;SDS011;11436;50.860;4.334;2022-11-15T06:20:00;7.95;;;4.00;;
22539;SDS011;11436;50.860;4.334;2022-11-15T06:22:25;15.80;;;4.50;;
22539;SDS011;11436;50.860;4.334;2022-11-15T06:24:51;9.20;;;4.45;;
22539;SDS011;11436;50.860;4.334;2022-11-15T06:27:17;13.48;;;5.18;;
22539;SDS011;11436;50.860;4.334;2022-11-15T06:29:42;14.93;;;6.05;;
22539;SDS011;11436;50.860;4.334;2022-11-15T06:32:08;13.52;;;4.88;;
22539;SDS011;11436;50.860;4.334;2022-11-15T06:34:34;9.70;;;5.13;;
22539;SDS011;11436;50.860;4.334;2022-11-15T06:37:00;14.55;;;6.60;;
22539;SDS011;11436;50.860;4.334;2022-11-15T06:39:27;14.05;;;5.15;;
22539;SDS011;11436;50.860;4.334;2022-11-15T06:41:52;18.90;;;6.05;;
22539;SDS011;11436;50.860;4.334;2022-11-15T06:44:19;12.90;;;4.40;;
22539;SDS011;11436;50.860;4.334;2022-11-15T06:46:45;14.90;;;5.18;;
22539;SDS011;11436;50.860;4.334;2022-11-15T06:49:11;15.48;;;5.45;;
22539;SDS011;11436;50.860;4.334;2022-11-15T06:51:37;13.32;;;4.95;;
22539;SDS011;11436;50.860;4.334;2022-11-15T06:54:02;17.33;;;4.65;;
22539;SDS011;11436;50.860;4.334;2022-11-15T06:56:29;12.90;;;4.78;;
22539;SDS011;11436;50.860;4.334;2022-11-15T06:58:55;10.82;;;4.22;;
22539;SDS011;11436;50.860;4.334;2022-11-15T07:01:21;15.77;;;4.95;;
22539;SDS011;11436;50.860;4.334;2022-11-15T07:03:47;9.80;;;4.90;;
22539;SDS011;11436;50.860;4.334;2022-11-15T07:06:12;14.23;;;4.78;;
22539;SDS011;11436;50.860;4.334;2022-11-15T07:08:38;12.98;;;4.30;;
22539;SDS011;11436;50.860;4.334;2022-11-15T07:11:05;8.75;;;4.13;;
22539;SDS011;11436;50.860;4.334;2022-11-15T07:13:32;10.82;;;3.58;;
22539;SDS011;11436;50.860;4.334;2022-11-15T07:16:01;10.85;;;4.25;;
22539;SDS011;11436;50.860;4.334;2022-11-15T07:18:30;6.70;;;3.88;;
22539;SDS011;11436;50.860;4.334;2022-11-15T07:21:02;7.22;;;4.43;;
22539;SDS011;11436;50.860;4.334;2022-11-15T07:23:28;11.93;;;3.70;;
22539;SDS011;11436;50.860;4.334;2022-11-15T07:25:56;7.43;;;3.67;;
22539;SDS011;11436;50.860;4.334;2022-11-15T07:28:25;7.53;;;3.55;;
22539;SDS011;11436;50.860;4.334;2022-11-15T07:30:51;13.93;;;3.65;;
22539;SDS011;11436;50.860;4.334;2022-11-15T07:33:17;5.97;;;3.40;;
22539;SDS011;11436;50.860;4.334;2022-11-15T07:35:43;10.23;;;3.20;;
22539;SDS011;11436;50.860;4.334;2022-11-15T07:38:11;8.90;;;3.60;;
22539;SDS011;11436;50.860;4.334;2022-11-15T07:40:37;12.82;;;3.97;;
22539;SDS011;11436;50.860;4.334;2022-11-15T07:43:03;7.78;;;3.45;;
22539;SDS011;11436;50.860;4.334;2022-11-15T07:45:31;7.47;;;2.83;;
22539;SDS011;11436;50.860;4.334;2022-11-15T07:48:00;11.02;;;3.92;;
22539;SDS011;11436;50.860;4.334;2022-11-15T07:50:26;9.15;;;5.10;;
22539;SDS011;11436;50.860;4.334;2022-11-15T07:52:57;5.13;;;3.15;;
22539;SDS011;11436;50.860;4.334;2022-11-15T07:55:24;8.38;;;3.47;;
22539;SDS011;11436;50.860;4.334;2022-11-15T07:57:52;7.30;;;3.08;;
22539;SDS011;11436;50.860;4.334;2022-11-15T08:00:18;9.38;;;3.40;;
22539;SDS011;11436;50.860;4.334;2022-11-15T08:02:44;7.97;;;4.03;;
22539;SDS011;11436;50.860;4.334;2022-11-15T08:05:10;10.40;;;3.33;;
22539;SDS011;11436;50.860;4.334;2022-11-15T08:07:36;17.17;;;3.53;;
22539;SDS011;11436;50.860;4.334;2022-11-15T08:10:03;7.95;;;3.25;;
22539;SDS011;11436;50.860;4.334;2022-11-15T08:12:31;10.57;;;3.45;;
22539;SDS011;11436;50.860;4.334;2022-11-15T08:14:57;10.75;;;3.10;;
22539;SDS011;11436;50.860;4.334;2022-11-15T08:17:23;6.38;;;3.03;;
22539;SDS011;11436;50.860;4.334;2022-11-15T08:19:49;5.82;;;2.80;;
22539;SDS011;11436;50.860;4.334;2022-11-15T08:22:15;5.75;;;3.15;;
22539;SDS011;11436;50.860;4.334;2022-11-15T08:24:41;8.02;;;3.47;;
22539;SDS011;11436;50.860;4.334;2022-11-15T08:27:07;13.80;;;2.85;;
22539;SDS011;11436;50.860;4.334;2022-11-15T08:29:42;9.57;;;2.70;;
22539;SDS011;11436;50.860;4.334;2022-11-15T08:32:09;7.97;;;2.35;;
22539;SDS011;11436;50.860;4.334;2022-11-15T08:34:36;8.30;;;2.60;;
22539;SDS011;11436;50.860;4.334;2022-11-15T08:37:02;7.65;;;2.65;;
22539;SDS011;11436;50.860;4.334;2022-11-15T08:39:28;8.82;;;2.55;;
22539;SDS011;11436;50.860;4.334;2022-11-15T08:41:54;8.23;;;2.28;;
22539;SDS011;11436;50.860;4.334;2022-11-15T08:44:20;15.95;;;2.47;;
22539;SDS011;11436;50.860;4.334;2022-11-15T08:46:46;9.40;;;2.72;;
22539;SDS011;11436;50.860;4.334;2022-11-15T08:49:12;8.38;;;2.30;;
22539;SDS011;11436;50.860;4.334;2022-11-15T08:51:38;14.75;;;2.80;;
22539;SDS011;11436;50.860;4.334;2022-11-15T08:54:04;8.90;;;2.28;;
22539;SDS011;11436;50.860;4.334;2022-11-15T08:56:30;8.45;;;1.88;;
22539;SDS011;11436;50.860;4.334;2022-11-15T08:58:55;5.07;;;1.65;;
22539;SDS011;11436;50.860;4.334;2022-11-15T09:01:21;9.73;;;2.03;;
22539;SDS011;11436;50.860;4.334;2022-11-15T09:03:47;7.00;;;2.05;;
22539;SDS011;11436;50.860;4.334;2022-11-15T09:06:13;8.52;;;2.03;;
22539;SDS011;11436;50.860;4.334;2022-11-15T09:08:39;10.65;;;1.98;;
22539;SDS011;11436;50.860;4.334;2022-11-15T09:11:06;8.25;;;2.47;;
22539;SDS011;11436;50.860;4.334;2022-11-15T09:13:40;11.55;;;2.33;;
22539;SDS011;11436;50.860;4.334;2022-11-15T09:16:05;7.40;;;2.20;;
22539;SDS011;11436;50.860;4.334;2022-11-15T09:18:31;11.95;;;2.30;;
22539;SDS011;11436;50.860;4.334;2022-11-15T09:20:58;10.75;;;2.25;;
22539;SDS011;11436;50.860;4.334;2022-11-15T09:23:25;10.55;;;2.00;;
22539;SDS011;11436;50.860;4.334;2022-11-15T09:25:51;10.00;;;2.42;;
22539;SDS011;11436;50.860;4.334;2022-11-15T09:28:17;7.63;;;2.03;;
22539;SDS011;11436;50.860;4.334;2022-11-15T09:30:43;11.95;;;2.05;;
22539;SDS011;11436;50.860;4.334;2022-11-15T09:33:10;11.25;;;1.80;;
22539;SDS011;11436;50.860;4.334;2022-11-15T09:35:36;7.93;;;1.40;;
22539;SDS011;11436;50.860;4.334;2022-11-15T09:38:02;9.45;;;1.95;;
22539;SDS011;11436;50.860;4.334;2022-11-15T09:40:29;8.85;;;1.95;;
22539;SDS011;11436;50.860;4.334;2022-11-15T09:48:48;11.05;;;2.20;;
22539;SDS011;11436;50.860;4.334;2022-11-15T09:51:30;10.07;;;1.92;;
22539;SDS011;11436;50.860;4.334;2022-11-15T09:54:10;11.77;;;1.90;;
22539;SDS011;11436;50.860;4.334;2022-11-15T09:56:43;7.97;;;1.90;;
22539;SDS011;11436;50.860;4.334;2022-11-15T10:04:27;19.05;;;1.88;;
22539;SDS011;11436;50.860;4.334;2022-11-15T10:07:05;9.48;;;2.38;;
22539;SDS011;11436;50.860;4.334;2022-11-15T10:12:22;7.03;;;1.83;;
22539;SDS011;11436;50.860;4.334;2022-11-15T10:14:49;8.88;;;2.35;;
22539;SDS011;11436;50.860;4.334;2022-11-15T10:22:52;7.72;;;1.88;;
22539;SDS011;11436;50.860;4.334;2022-11-15T10:25:22;7.00;;;1.83;;
22539;SDS011;11436;50.860;4.334;2022-11-15T10:27:52;6.90;;;2.08;;
22539;SDS011;11436;50.860;4.334;2022-11-15T10:30:30;6.32;;;1.52;;
22539;SDS011;11436;50.860;4.334;2022-11-15T10:33:08;9.82;;;1.77;;
22539;SDS011;11436;50.860;4.334;2022-11-15T10:44:01;4.60;;;1.83;;
22539;SDS011;11436;50.860;4.334;2022-11-15T10:46:33;13.07;;;2.40;;
22539;SDS011;11436;50.860;4.334;2022-11-15T10:54:23;8.55;;;1.70;;
22539;SDS011;11436;50.860;4.334;2022-11-15T10:57:04;9.18;;;1.77;;
22539;SDS011;11436;50.860;4.334;2022-11-15T10:59:34;8.90;;;1.90;;
22539;SDS011;11436;50.860;4.334;2022-11-15T11:02:02;9.02;;;1.80;;
22539;SDS011;11436;50.860;4.334;2022-11-15T11:04:51;11.00;;;1.95;;
22539;SDS011;11436;50.860;4.334;2022-11-15T11:07:21;14.90;;;1.80;;
22539;SDS011;11436;50.860;4.334;2022-11-15T11:09:56;8.63;;;2.08;;
22539;SDS011;11436;50.860;4.334;2022-11-15T11:12:31;10.40;;;1.95;;
22539;SDS011;11436;50.860;4.334;2022-11-15T11:15:05;7.60;;;1.58;;
22539;SDS011;11436;50.860;4.334;2022-11-15T11:20:33;8.93;;;1.75;;
22539;SDS011;11436;50.860;4.334;2022-11-15T11:26:09;6.22;;;1.95;;
22539;SDS011;11436;50.860;4.334;2022-11-15T11:47:32;5.68;;;1.33;;
22539;SDS011;11436;50.860;4.334;2022-11-15T11:50:15;7.80;;;1.70;;
22539;SDS011;11436;50.860;4.334;2022-11-15T11:55:36;7.25;;;1.40;;
22539;SDS011;11436;50.860;4.334;2022-11-15T11:58:14;11.35;;;2.45;;
22539;SDS011;11436;50.860;4.334;2022-11-15T12:00:54;8.05;;;1.80;;
22539;SDS011;11436;50.860;4.334;2022-11-15T12:09:55;9.18;;;2.20;;
22539;SDS011;11436;50.860;4.334;2022-11-15T12:14:50;9.82;;;2.15;;
22539;SDS011;11436;50.860;4.334;2022-11-15T12:17:21;12.02;;;1.85;;
22539;SDS011;11436;50.860;4.334;2022-11-15T12:19:52;9.40;;;2.00;;
22539;SDS011;11436;50.860;4.334;2022-11-15T12:22:23;4.78;;;1.90;;
22539;SDS011;11436;50.860;4.334;2022-11-15T12:25:19;8.40;;;2.17;;
22539;SDS011;11436;50.860;4.334;2022-11-15T12:31:01;9.77;;;2.45;;
22539;SDS011;11436;50.860;4.334;2022-11-15T12:33:43;8.50;;;2.30;;
22539;SDS011;11436;50.860;4.334;2022-11-15T12:39:10;8.68;;;2.67;;
22539;SDS011;11436;50.860;4.334;2022-11-15T12:41:40;6.53;;;2.03;;
22539;SDS011;11436;50.860;4.334;2022-11-15T12:44:12;13.98;;;2.53;;
22539;SDS011;11436;50.860;4.334;2022-11-15T13:02:36;11.82;;;1.65;;
22539;SDS011;11436;50.860;4.334;2022-11-15T13:08:03;5.18;;;1.95;;
22539;SDS011;11436;50.860;4.334;2022-11-15T13:10:33;6.25;;;1.60;;
22539;SDS011;11436;50.860;4.334;2022-11-15T13:13:03;10.63;;;2.13;;
22539;SDS011;11436;50.860;4.334;2022-11-15T13:15:34;5.95;;;2.63;;
22539;SDS011;11436;50.860;4.334;2022-11-15T13:18:31;6.68;;;1.75;;
22539;SDS011;11436;50.860;4.334;2022-11-15T13:21:02;7.53;;;1.65;;
22539;SDS011;11436;50.860;4.334;2022-11-15T13:23:53;2.80;;;1.60;;
22539;SDS011;11436;50.860;4.334;2022-11-15T13:26:20;4.75;;;1.77;;
22539;SDS011;11436;50.860;4.334;2022-11-15T13:28:50;7.05;;;1.92;;
22539;SDS011;11436;50.860;4.334;2022-11-15T13:31:24;10.20;;;1.48;;
22539;SDS011;11436;50.860;4.334;2022-11-15T13:34:25;7.18;;;1.80;;
22539;SDS011;11436;50.860;4.334;2022-11-15T13:36:59;3.75;;;1.13;;
22539;SDS011;11436;50.860;4.334;2022-11-15T13:41:55;7.50;;;1.75;;
22539;SDS011;11436;50.860;4.334;2022-11-15T13:44:26;7.57;;;1.35;;
22539;SDS011;11436;50.860;4.334;2022-11-15T13:47:35;3.75;;;1.20;;
22539;SDS011;11436;50.860;4.334;2022-11-15T13:49:47;6.82;;;1.50;;
22539;SDS011;11436;50.860;4.334;2022-11-15T13:52:16;8.18;;;1.42;;
22539;SDS011;11436;50.860;4.334;2022-11-15T13:55:42;6.30;;;1.80;;
22539;SDS011;11436;50.860;4.334;2022-11-15T14:02:53;4.00;;;1.70;;
22539;SDS011;11436;50.860;4.334;2022-11-15T14:05:21;8.35;;;1.80;;
22539;SDS011;11436;50.860;4.334;2022-11-15T14:08:31;6.75;;;2.20;;
22539;SDS011;11436;50.860;4.334;2022-11-15T14:10:40;6.70;;;1.63;;
22539;SDS011;11436;50.860;4.334;2022-11-15T14:13:28;6.22;;;1.50;;
22539;SDS011;11436;50.860;4.334;2022-11-15T14:15:53;4.00;;;1.58;;
22539;SDS011;11436;50.860;4.334;2022-11-15T14:21:14;8.27;;;1.73;;
22539;SDS011;11436;50.860;4.334;2022-11-15T14:23:41;5.32;;;1.70;;
22539;SDS011;11436;50.860;4.334;2022-11-15T14:26:31;11.35;;;2.13;;
22539;SDS011;11436;50.860;4.334;2022-11-15T14:28:57;6.32;;;1.33;;
22539;SDS011;11436;50.860;4.334;2022-11-15T14:31:50;8.02;;;1.88;;
22539;SDS011;11436;50.860;4.334;2022-11-15T14:34:15;3.63;;;2.05;;
22539;SDS011;11436;50.860;4.334;2022-11-15T14:36:41;4.72;;;1.88;;
22539;SDS011;11436;50.860;4.334;2022-11-15T14:39:10;5.03;;;1.95;;
22539;SDS011;11436;50.860;4.334;2022-11-15T14:41:36;4.32;;;1.65;;
22539;SDS011;11436;50.860;4.334;2022-11-15T14:44:05;3.55;;;1.67;;
22539;SDS011;11436;50.860;4.334;2022-11-15T14:46:34;8.63;;;1.75;;
22539;SDS011;11436;50.860;4.334;2022-11-15T14:49:03;5.90;;;1.50;;
22539;SDS011;11436;50.860;4.334;2022-11-15T15:04:12;5.25;;;1.70;;
22539;SDS011;11436;50.860;4.334;2022-11-15T15:06:38;8.13;;;2.00;;
22539;SDS011;11436;50.860;4.334;2022-11-15T15:09:04;4.90;;;2.00;;
22539;SDS011;11436;50.860;4.334;2022-11-15T15:11:30;2.72;;;1.80;;
22539;SDS011;11436;50.860;4.334;2022-11-15T15:13:57;6.35;;;1.80;;
22539;SDS011;11436;50.860;4.334;2022-11-15T15:16:25;5.18;;;1.98;;
22539;SDS011;11436;50.860;4.334;2022-11-15T15:18:52;5.40;;;1.90;;
22539;SDS011;11436;50.860;4.334;2022-11-15T15:23:48;4.72;;;2.13;;
22539;SDS011;11436;50.860;4.334;2022-11-15T15:26:14;3.83;;;1.83;;
22539;SDS011;11436;50.860;4.334;2022-11-15T15:28:40;5.05;;;2.45;;
22539;SDS011;11436;50.860;4.334;2022-11-15T15:31:06;4.10;;;2.58;;
22539;SDS011;11436;50.860;4.334;2022-11-15T15:33:32;5.50;;;2.30;;
22539;SDS011;11436;50.860;4.334;2022-11-15T15:35:58;5.40;;;2.60;;
22539;SDS011;11436;50.860;4.334;2022-11-15T15:38:24;6.65;;;2.83;;
22539;SDS011;11436;50.860;4.334;2022-11-15T15:40:49;4.28;;;2.30;;
22539;SDS011;11436;50.860;4.334;2022-11-15T15:43:15;3.97;;;2.55;;
22539;SDS011;11436;50.860;4.334;2022-11-15T15:45:44;5.75;;;2.95;;
22539;SDS011;11436;50.860;4.334;2022-11-15T15:48:14;4.35;;;2.40;;
22539;SDS011;11436;50.860;4.334;2022-11-15T15:50:41;3.95;;;2.75;;
22539;SDS011;11436;50.860;4.334;2022-11-15T15:53:08;4.90;;;2.70;;
22539;SDS011;11436;50.860;4.334;2022-11-15T15:55:35;6.35;;;3.00;;
22539;SDS011;11436;50.860;4.334;2022-11-15T15:58:02;5.60;;;3.20;;
22539;SDS011;11436;50.860;4.334;2022-11-15T16:00:30;4.15;;;2.65;;
22539;SDS011;11436;50.860;4.334;2022-11-15T16:02:58;4.60;;;2.75;;
22539;SDS011;11436;50.860;4.334;2022-11-15T16:05:24;6.80;;;3.25;;
22539;SDS011;11436;50.860;4.334;2022-11-15T16:07:50;9.75;;;3.75;;
22539;SDS011;11436;50.860;4.334;2022-11-15T16:10:19;7.18;;;4.45;;
22539;SDS011;11436;50.860;4.334;2022-11-15T16:12:46;6.75;;;4.90;;
22539;SDS011;11436;50.860;4.334;2022-11-15T16:15:13;6.82;;;4.13;;
22539;SDS011;11436;50.860;4.334;2022-11-15T16:17:59;63.00;;;26.95;;
22539;SDS011;11436;50.860;4.334;2022-11-15T16:22:55;9.95;;;3.50;;
22539;SDS011;11436;50.860;4.334;2022-11-15T16:25:20;8.48;;;3.50;;
22539;SDS011;11436;50.860;4.334;2022-11-15T16:27:46;5.05;;;3.25;;
22539;SDS011;11436;50.860;4.334;2022-11-15T16:30:14;6.68;;;4.10;;
22539;SDS011;11436;50.860;4.334;2022-11-15T16:32:43;8.70;;;4.57;;
22539;SDS011;11436;50.860;4.334;2022-11-15T16:35:13;4.55;;;3.63;;
22539;SDS011;11436;50.860;4.334;2022-11-15T16:37:40;4.65;;;3.08;;
22539;SDS011;11436;50.860;4.334;2022-11-15T16:40:26;4.95;;;3.60;;
22539;SDS011;11436;50.860;4.334;2022-11-15T16:42:55;4.50;;;3.35;;
22539;SDS011;11436;50.860;4.334;2022-11-15T16:45:22;4.78;;;3.20;;
22539;SDS011;11436;50.860;4.334;2022-11-15T16:47:48;5.72;;;3.88;;
22539;SDS011;11436;50.860;4.334;2022-11-15T16:50:24;4.07;;;3.10;;
22539;SDS011;11436;50.860;4.334;2022-11-15T16:52:52;5.03;;;3.15;;
22539;SDS011;11436;50.860;4.334;2022-11-15T16:55:20;5.07;;;3.28;;
22539;SDS011;11436;50.860;4.334;2022-11-15T16:57:47;4.78;;;2.90;;
22539;SDS011;11436;50.860;4.334;2022-11-15T17:00:13;4.80;;;3.45;;
22539;SDS011;11436;50.860;4.334;2022-11-15T17:02:41;5.60;;;3.30;;
22539;SDS011;11436;50.860;4.334;2022-11-15T17:05:08;7.38;;;3.30;;
22539;SDS011;11436;50.860;4.334;2022-11-15T17:07:34;4.78;;;3.30;;
22539;SDS011;11436;50.860;4.334;2022-11-15T17:10:00;6.47;;;3.10;;
22539;SDS011;11436;50.860;4.334;2022-11-15T17:12:26;4.20;;;3.35;;
22539;SDS011;11436;50.860;4.334;2022-11-15T17:14:52;5.50;;;3.50;;
22539;SDS011;11436;50.860;4.334;2022-11-15T17:17:18;8.02;;;3.83;;
22539;SDS011;11436;50.860;4.334;2022-11-15T17:19:53;6.18;;;4.32;;
22539;SDS011;11436;50.860;4.334;2022-11-15T17:22:19;5.82;;;3.97;;
22539;SDS011;11436;50.860;4.334;2022-11-15T17:24:44;6.70;;;4.10;;
22539;SDS011;11436;50.860;4.334;2022-11-15T17:27:10;7.05;;;3.80;;
22539;SDS011;11436;50.860;4.334;2022-11-15T17:29:36;7.43;;;3.95;;
22539;SDS011;11436;50.860;4.334;2022-11-15T17:32:02;6.18;;;4.07;;
22539;SDS011;11436;50.860;4.334;2022-11-15T17:34:28;3.60;;;3.30;;